sensor_id;sensor_type;location;lat;lon;timestamp;P1;durP1;ratioP1;P2;durP2;ratioP2
14088;SDS011;7120;52.890;6.040;2022-11-15T00:00:26;36.07;;;21.97;;
14088;SDS011;7120;52.890;6.040;2022-11-15T00:02:52;38.73;;;22.70;;
14088;SDS011;7120;52.890;6.040;2022-11-15T00:05:17;34.90;;;22.90;;
14088;SDS011;7120;52.890;6.040;2022-11-15T00:07:43;33.53;;;22.43;;
14088;SDS011;7120;52.890;6.040;2022-11-15T00:10:08;35.13;;;22.50;;
14088;SDS011;7120;52.890;6.040;2022-11-15T00:12:34;34.30;;;22.97;;
14088;SDS011;7120;52.890;6.040;2022-11-15T00:14:59;36.27;;;23.60;;
14088;SDS011;7120;52.890;6.040;2022-11-15T00:17:24;32.87;;;22.80;;
14088;SDS011;7120;52.890;6.040;2022-11-15T00:19:50;30.40;;;22.33;;
14088;SDS011;7120;52.890;6.040;2022-11-15T00:22:15;31.10;;;23.07;;
14088;SDS011;7120;52.890;6.040;2022-11-15T00:24:40;31.63;;;22.40;;
14088;SDS011;7120;52.890;6.040;2022-11-15T00:27:06;28.23;;;22.50;;
14088;SDS011;7120;52.890;6.040;2022-11-15T00:29:31;29.40;;;24.00;;
14088;SDS011;7120;52.890;6.040;2022-11-15T00:31:56;30.87;;;24.47;;
14088;SDS011;7120;52.890;6.040;2022-11-15T00:34:22;29.30;;;21.70;;
14088;SDS011;7120;52.890;6.040;2022-11-15T00:36:48;26.00;;;21.77;;
14088;SDS011;7120;52.890;6.040;2022-11-15T00:39:13;28.17;;;23.27;;
14088;SDS011;7120;52.890;6.040;2022-11-15T00:41:38;27.50;;;22.67;;
14088;SDS011;7120;52.890;6.040;2022-11-15T00:44:04;28.50;;;23.00;;
14088;SDS011;7120;52.890;6.040;2022-11-15T00:46:29;29.67;;;23.80;;
14088;SDS011;7120;52.890;6.040;2022-11-15T00:48:54;28.40;;;23.30;;
14088;SDS011;7120;52.890;6.040;2022-11-15T00:51:20;29.73;;;24.60;;
14088;SDS011;7120;52.890;6.040;2022-11-15T00:53:45;31.33;;;23.43;;
14088;SDS011;7120;52.890;6.040;2022-11-15T00:56:10;29.93;;;23.27;;
14088;SDS011;7120;52.890;6.040;2022-11-15T00:58:36;30.13;;;23.63;;
14088;SDS011;7120;52.890;6.040;2022-11-15T01:01:08;25.97;;;23.13;;
14088;SDS011;7120;52.890;6.040;2022-11-15T01:03:35;28.47;;;22.53;;
14088;SDS011;7120;52.890;6.040;2022-11-15T01:06:02;29.53;;;21.73;;
14088;SDS011;7120;52.890;6.040;2022-11-15T01:08:27;27.87;;;21.33;;
14088;SDS011;7120;52.890;6.040;2022-11-15T01:10:53;29.77;;;21.87;;
14088;SDS011;7120;52.890;6.040;2022-11-15T01:13:18;27.60;;;21.17;;
14088;SDS011;7120;52.890;6.040;2022-11-15T01:15:43;30.30;;;21.33;;
14088;SDS011;7120;52.890;6.040;2022-11-15T01:18:09;28.53;;;21.33;;
14088;SDS011;7120;52.890;6.040;2022-11-15T01:20:39;29.50;;;21.10;;
14088;SDS011;7120;52.890;6.040;2022-11-15T01:23:08;29.47;;;21.00;;
14088;SDS011;7120;52.890;6.040;2022-11-15T01:25:33;28.27;;;20.37;;
14088;SDS011;7120;52.890;6.040;2022-11-15T01:27:59;25.63;;;19.13;;
14088;SDS011;7120;52.890;6.040;2022-11-15T01:30:25;26.17;;;18.50;;
14088;SDS011;7120;52.890;6.040;2022-11-15T01:32:51;24.03;;;19.23;;
14088;SDS011;7120;52.890;6.040;2022-11-15T01:35:16;24.07;;;18.73;;
14088;SDS011;7120;52.890;6.040;2022-11-15T01:37:41;23.37;;;18.77;;
14088;SDS011;7120;52.890;6.040;2022-11-15T01:40:07;25.00;;;18.93;;
14088;SDS011;7120;52.890;6.040;2022-11-15T01:42:33;28.80;;;19.50;;
14088;SDS011;7120;52.890;6.040;2022-11-15T01:44:58;25.10;;;18.73;;
14088;SDS011;7120;52.890;6.040;2022-11-15T01:47:34;26.00;;;19.30;;
14088;SDS011;7120;52.890;6.040;2022-11-15T01:50:12;24.93;;;19.40;;
14088;SDS011;7120;52.890;6.040;2022-11-15T01:52:41;28.13;;;19.07;;
14088;SDS011;7120;52.890;6.040;2022-11-15T01:55:09;25.67;;;19.23;;
14088;SDS011;7120;52.890;6.040;2022-11-15T01:57:38;27.33;;;19.67;;
14088;SDS011;7120;52.890;6.040;2022-11-15T02:00:07;28.10;;;20.67;;
14088;SDS011;7120;52.890;6.040;2022-11-15T02:02:33;31.07;;;20.30;;
14088;SDS011;7120;52.890;6.040;2022-11-15T02:05:01;32.87;;;21.33;;
14088;SDS011;7120;52.890;6.040;2022-11-15T02:07:26;35.30;;;21.70;;
14088;SDS011;7120;52.890;6.040;2022-11-15T02:09:53;33.10;;;21.70;;
14088;SDS011;7120;52.890;6.040;2022-11-15T02:12:20;30.27;;;20.10;;
14088;SDS011;7120;52.890;6.040;2022-11-15T02:14:49;32.73;;;20.77;;
14088;SDS011;7120;52.890;6.040;2022-11-15T02:25:36;31.07;;;20.67;;
14088;SDS011;7120;52.890;6.040;2022-11-15T02:28:10;36.90;;;21.70;;
14088;SDS011;7120;52.890;6.040;2022-11-15T02:31:22;33.53;;;22.10;;
14088;SDS011;7120;52.890;6.040;2022-11-15T02:42:21;38.33;;;22.73;;
14088;SDS011;7120;52.890;6.040;2022-11-15T02:45:12;35.60;;;22.67;;
14088;SDS011;7120;52.890;6.040;2022-11-15T02:47:44;37.57;;;22.23;;
14088;SDS011;7120;52.890;6.040;2022-11-15T02:50:13;40.77;;;23.50;;
14088;SDS011;7120;52.890;6.040;2022-11-15T02:52:46;40.00;;;22.67;;
14088;SDS011;7120;52.890;6.040;2022-11-15T02:55:29;38.77;;;23.03;;
14088;SDS011;7120;52.890;6.040;2022-11-15T02:58:05;40.57;;;23.87;;
14088;SDS011;7120;52.890;6.040;2022-11-15T03:00:34;43.83;;;24.90;;
14088;SDS011;7120;52.890;6.040;2022-11-15T03:05:57;44.03;;;24.57;;
14088;SDS011;7120;52.890;6.040;2022-11-15T03:08:51;44.57;;;24.90;;
14088;SDS011;7120;52.890;6.040;2022-11-15T03:11:29;43.60;;;24.13;;
14088;SDS011;7120;52.890;6.040;2022-11-15T03:19:54;54.43;;;25.30;;
14088;SDS011;7120;52.890;6.040;2022-11-15T03:22:23;50.83;;;26.03;;
14088;SDS011;7120;52.890;6.040;2022-11-15T03:24:53;54.17;;;27.00;;
14088;SDS011;7120;52.890;6.040;2022-11-15T03:27:24;54.87;;;27.33;;
14088;SDS011;7120;52.890;6.040;2022-11-15T03:29:58;54.63;;;27.63;;
14088;SDS011;7120;52.890;6.040;2022-11-15T03:32:31;60.50;;;26.70;;
14088;SDS011;7120;52.890;6.040;2022-11-15T03:35:03;62.57;;;28.27;;
14088;SDS011;7120;52.890;6.040;2022-11-15T03:37:34;56.37;;;26.83;;
14088;SDS011;7120;52.890;6.040;2022-11-15T03:40:10;59.50;;;26.50;;
14088;SDS011;7120;52.890;6.040;2022-11-15T03:42:38;62.03;;;26.73;;
14088;SDS011;7120;52.890;6.040;2022-11-15T03:47:39;61.83;;;26.20;;
14088;SDS011;7120;52.890;6.040;2022-11-15T03:50:10;61.67;;;26.90;;
14088;SDS011;7120;52.890;6.040;2022-11-15T03:52:38;59.53;;;27.70;;
14088;SDS011;7120;52.890;6.040;2022-11-15T03:55:07;65.57;;;26.30;;
14088;SDS011;7120;52.890;6.040;2022-11-15T03:57:36;58.03;;;26.20;;
14088;SDS011;7120;52.890;6.040;2022-11-15T04:00:05;62.57;;;27.87;;
14088;SDS011;7120;52.890;6.040;2022-11-15T04:02:31;58.80;;;27.70;;
14088;SDS011;7120;52.890;6.040;2022-11-15T04:04:56;62.23;;;28.37;;
14088;SDS011;7120;52.890;6.040;2022-11-15T04:07:22;63.73;;;28.93;;
14088;SDS011;7120;52.890;6.040;2022-11-15T04:09:47;62.30;;;27.83;;
14088;SDS011;7120;52.890;6.040;2022-11-15T04:12:31;63.63;;;29.10;;
14088;SDS011;7120;52.890;6.040;2022-11-15T04:15:01;59.83;;;26.93;;
14088;SDS011;7120;52.890;6.040;2022-11-15T04:17:53;59.23;;;28.73;;
14088;SDS011;7120;52.890;6.040;2022-11-15T04:23:12;71.57;;;30.13;;
14088;SDS011;7120;52.890;6.040;2022-11-15T04:26:01;75.53;;;30.03;;
14088;SDS011;7120;52.890;6.040;2022-11-15T04:28:32;72.17;;;30.43;;
14088;SDS011;7120;52.890;6.040;2022-11-15T04:30:57;75.77;;;30.90;;
14088;SDS011;7120;52.890;6.040;2022-11-15T04:33:23;78.67;;;31.13;;
14088;SDS011;7120;52.890;6.040;2022-11-15T04:35:48;84.77;;;32.80;;
14088;SDS011;7120;52.890;6.040;2022-11-15T04:38:32;78.27;;;33.40;;
14088;SDS011;7120;52.890;6.040;2022-11-15T04:40:58;83.73;;;33.70;;
14088;SDS011;7120;52.890;6.040;2022-11-15T04:43:24;90.73;;;34.77;;
14088;SDS011;7120;52.890;6.040;2022-11-15T04:45:49;85.33;;;34.13;;
14088;SDS011;7120;52.890;6.040;2022-11-15T04:48:14;89.53;;;34.17;;
14088;SDS011;7120;52.890;6.040;2022-11-15T04:50:40;86.33;;;36.47;;
14088;SDS011;7120;52.890;6.040;2022-11-15T04:53:05;81.57;;;34.57;;
14088;SDS011;7120;52.890;6.040;2022-11-15T04:55:31;89.07;;;37.43;;
14088;SDS011;7120;52.890;6.040;2022-11-15T04:57:57;91.17;;;36.40;;
14088;SDS011;7120;52.890;6.040;2022-11-15T05:00:26;92.60;;;36.27;;
14088;SDS011;7120;52.890;6.040;2022-11-15T05:02:53;93.97;;;37.33;;
14088;SDS011;7120;52.890;6.040;2022-11-15T05:05:38;99.47;;;37.00;;
14088;SDS011;7120;52.890;6.040;2022-11-15T05:08:03;98.03;;;37.43;;
14088;SDS011;7120;52.890;6.040;2022-11-15T05:10:29;93.63;;;36.20;;
14088;SDS011;7120;52.890;6.040;2022-11-15T05:12:54;97.90;;;37.27;;
14088;SDS011;7120;52.890;6.040;2022-11-15T05:15:19;98.00;;;38.23;;
14088;SDS011;7120;52.890;6.040;2022-11-15T05:17:45;110.93;;;39.70;;
14088;SDS011;7120;52.890;6.040;2022-11-15T05:20:10;115.13;;;39.17;;
14088;SDS011;7120;52.890;6.040;2022-11-15T05:22:36;119.57;;;40.50;;
14088;SDS011;7120;52.890;6.040;2022-11-15T05:25:02;107.73;;;38.83;;
14088;SDS011;7120;52.890;6.040;2022-11-15T05:27:28;116.77;;;40.67;;
14088;SDS011;7120;52.890;6.040;2022-11-15T05:29:53;117.80;;;40.43;;
14088;SDS011;7120;52.890;6.040;2022-11-15T05:32:19;121.30;;;43.30;;
14088;SDS011;7120;52.890;6.040;2022-11-15T05:34:45;115.90;;;42.13;;
14088;SDS011;7120;52.890;6.040;2022-11-15T05:37:11;109.53;;;40.57;;
14088;SDS011;7120;52.890;6.040;2022-11-15T05:39:38;121.27;;;41.60;;
14088;SDS011;7120;52.890;6.040;2022-11-15T05:44:32;134.33;;;40.70;;
14088;SDS011;7120;52.890;6.040;2022-11-15T05:46:58;118.60;;;40.47;;
14088;SDS011;7120;52.890;6.040;2022-11-15T05:49:25;129.23;;;42.27;;
14088;SDS011;7120;52.890;6.040;2022-11-15T05:51:55;118.83;;;41.43;;
14088;SDS011;7120;52.890;6.040;2022-11-15T05:54:22;103.93;;;38.60;;
14088;SDS011;7120;52.890;6.040;2022-11-15T05:56:48;121.13;;;40.30;;
14088;SDS011;7120;52.890;6.040;2022-11-15T05:59:14;118.63;;;41.27;;
14088;SDS011;7120;52.890;6.040;2022-11-15T06:01:40;134.90;;;43.23;;
14088;SDS011;7120;52.890;6.040;2022-11-15T06:04:07;123.97;;;40.40;;
14088;SDS011;7120;52.890;6.040;2022-11-15T06:06:33;122.63;;;41.93;;
14088;SDS011;7120;52.890;6.040;2022-11-15T06:08:58;125.80;;;43.60;;
14088;SDS011;7120;52.890;6.040;2022-11-15T06:11:24;118.10;;;43.43;;
14088;SDS011;7120;52.890;6.040;2022-11-15T06:13:49;123.03;;;40.80;;
14088;SDS011;7120;52.890;6.040;2022-11-15T06:16:14;112.70;;;41.57;;
14088;SDS011;7120;52.890;6.040;2022-11-15T06:18:40;101.63;;;39.97;;
14088;SDS011;7120;52.890;6.040;2022-11-15T06:21:05;113.60;;;42.27;;
14088;SDS011;7120;52.890;6.040;2022-11-15T06:23:31;117.17;;;40.60;;
14088;SDS011;7120;52.890;6.040;2022-11-15T06:25:58;106.60;;;40.50;;
14088;SDS011;7120;52.890;6.040;2022-11-15T06:28:27;122.43;;;40.17;;
14088;SDS011;7120;52.890;6.040;2022-11-15T06:30:54;99.53;;;39.17;;
14088;SDS011;7120;52.890;6.040;2022-11-15T06:33:19;108.43;;;40.47;;
14088;SDS011;7120;52.890;6.040;2022-11-15T06:35:44;111.57;;;39.37;;
14088;SDS011;7120;52.890;6.040;2022-11-15T06:38:10;101.37;;;41.10;;
14088;SDS011;7120;52.890;6.040;2022-11-15T06:40:36;100.37;;;40.00;;
14088;SDS011;7120;52.890;6.040;2022-11-15T06:43:03;93.73;;;39.90;;
14088;SDS011;7120;52.890;6.040;2022-11-15T06:45:29;98.13;;;40.50;;
14088;SDS011;7120;52.890;6.040;2022-11-15T06:47:55;90.23;;;38.83;;
14088;SDS011;7120;52.890;6.040;2022-11-15T06:50:21;101.37;;;39.47;;
14088;SDS011;7120;52.890;6.040;2022-11-15T06:52:46;84.07;;;37.90;;
14088;SDS011;7120;52.890;6.040;2022-11-15T06:55:12;82.33;;;37.73;;
14088;SDS011;7120;52.890;6.040;2022-11-15T06:57:42;92.00;;;38.30;;
14088;SDS011;7120;52.890;6.040;2022-11-15T07:00:11;84.30;;;38.50;;
14088;SDS011;7120;52.890;6.040;2022-11-15T07:02:37;91.97;;;37.43;;
14088;SDS011;7120;52.890;6.040;2022-11-15T07:05:03;76.33;;;37.67;;
14088;SDS011;7120;52.890;6.040;2022-11-15T07:07:28;77.67;;;36.77;;
14088;SDS011;7120;52.890;6.040;2022-11-15T07:09:53;81.30;;;36.60;;
14088;SDS011;7120;52.890;6.040;2022-11-15T07:12:19;80.80;;;36.47;;
14088;SDS011;7120;52.890;6.040;2022-11-15T07:14:44;89.47;;;37.60;;
14088;SDS011;7120;52.890;6.040;2022-11-15T07:17:10;91.53;;;37.60;;
14088;SDS011;7120;52.890;6.040;2022-11-15T07:19:36;71.30;;;35.53;;
14088;SDS011;7120;52.890;6.040;2022-11-15T07:22:02;86.90;;;36.57;;
14088;SDS011;7120;52.890;6.040;2022-11-15T07:24:27;76.20;;;35.60;;
14088;SDS011;7120;52.890;6.040;2022-11-15T07:26:52;78.60;;;36.57;;
14088;SDS011;7120;52.890;6.040;2022-11-15T07:29:18;82.03;;;37.27;;
14088;SDS011;7120;52.890;6.040;2022-11-15T07:31:43;73.33;;;37.40;;
14088;SDS011;7120;52.890;6.040;2022-11-15T07:34:08;80.93;;;35.73;;
14088;SDS011;7120;52.890;6.040;2022-11-15T07:36:34;66.97;;;36.03;;
14088;SDS011;7120;52.890;6.040;2022-11-15T07:39:00;74.90;;;35.27;;
14088;SDS011;7120;52.890;6.040;2022-11-15T07:41:25;71.73;;;34.20;;
14088;SDS011;7120;52.890;6.040;2022-11-15T07:43:51;69.00;;;35.40;;
14088;SDS011;7120;52.890;6.040;2022-11-15T07:46:17;70.20;;;34.67;;
14088;SDS011;7120;52.890;6.040;2022-11-15T07:48:43;67.10;;;32.60;;
14088;SDS011;7120;52.890;6.040;2022-11-15T07:51:11;70.27;;;34.50;;
14088;SDS011;7120;52.890;6.040;2022-11-15T07:53:41;68.30;;;35.47;;
14088;SDS011;7120;52.890;6.040;2022-11-15T07:56:07;67.30;;;35.13;;
14088;SDS011;7120;52.890;6.040;2022-11-15T07:58:33;68.90;;;34.90;;
14088;SDS011;7120;52.890;6.040;2022-11-15T08:00:58;61.60;;;33.07;;
14088;SDS011;7120;52.890;6.040;2022-11-15T08:03:28;68.83;;;34.50;;
14088;SDS011;7120;52.890;6.040;2022-11-15T08:05:54;64.73;;;34.37;;
14088;SDS011;7120;52.890;6.040;2022-11-15T08:08:19;64.37;;;33.93;;
14088;SDS011;7120;52.890;6.040;2022-11-15T08:10:44;59.37;;;32.00;;
14088;SDS011;7120;52.890;6.040;2022-11-15T08:13:11;68.67;;;34.20;;
14088;SDS011;7120;52.890;6.040;2022-11-15T08:15:37;59.47;;;32.53;;
14088;SDS011;7120;52.890;6.040;2022-11-15T08:18:04;55.63;;;33.40;;
14088;SDS011;7120;52.890;6.040;2022-11-15T08:20:31;54.67;;;30.50;;
14088;SDS011;7120;52.890;6.040;2022-11-15T08:23:00;54.93;;;31.53;;
14088;SDS011;7120;52.890;6.040;2022-11-15T08:25:28;53.93;;;31.77;;
14088;SDS011;7120;52.890;6.040;2022-11-15T08:27:56;49.87;;;31.33;;
14088;SDS011;7120;52.890;6.040;2022-11-15T08:30:23;51.27;;;31.43;;
14088;SDS011;7120;52.890;6.040;2022-11-15T08:32:49;53.70;;;32.87;;
14088;SDS011;7120;52.890;6.040;2022-11-15T08:35:16;51.23;;;32.40;;
14088;SDS011;7120;52.890;6.040;2022-11-15T08:37:41;48.03;;;30.53;;
14088;SDS011;7120;52.890;6.040;2022-11-15T08:40:07;49.40;;;31.33;;
14088;SDS011;7120;52.890;6.040;2022-11-15T08:42:33;46.70;;;29.83;;
14088;SDS011;7120;52.890;6.040;2022-11-15T08:44:58;42.03;;;29.37;;
14088;SDS011;7120;52.890;6.040;2022-11-15T08:47:24;42.20;;;28.80;;
14088;SDS011;7120;52.890;6.040;2022-11-15T08:49:49;42.43;;;30.30;;
14088;SDS011;7120;52.890;6.040;2022-11-15T08:52:15;42.77;;;27.37;;
14088;SDS011;7120;52.890;6.040;2022-11-15T08:54:40;39.73;;;27.47;;
14088;SDS011;7120;52.890;6.040;2022-11-15T08:57:06;38.43;;;28.30;;
14088;SDS011;7120;52.890;6.040;2022-11-15T08:59:32;38.63;;;28.10;;
14088;SDS011;7120;52.890;6.040;2022-11-15T09:01:57;36.37;;;26.83;;
14088;SDS011;7120;52.890;6.040;2022-11-15T09:04:22;33.00;;;26.23;;
14088;SDS011;7120;52.890;6.040;2022-11-15T09:06:48;32.63;;;25.97;;
14088;SDS011;7120;52.890;6.040;2022-11-15T09:09:13;35.23;;;26.73;;
14088;SDS011;7120;52.890;6.040;2022-11-15T09:11:39;33.47;;;26.23;;
14088;SDS011;7120;52.890;6.040;2022-11-15T09:14:04;33.07;;;24.43;;
14088;SDS011;7120;52.890;6.040;2022-11-15T09:16:30;29.23;;;24.17;;
14088;SDS011;7120;52.890;6.040;2022-11-15T09:18:56;32.73;;;23.80;;
14088;SDS011;7120;52.890;6.040;2022-11-15T09:21:22;27.10;;;22.73;;
14088;SDS011;7120;52.890;6.040;2022-11-15T09:23:49;31.80;;;23.90;;
14088;SDS011;7120;52.890;6.040;2022-11-15T09:26:17;28.90;;;24.10;;
14088;SDS011;7120;52.890;6.040;2022-11-15T09:28:42;28.43;;;23.00;;
14088;SDS011;7120;52.890;6.040;2022-11-15T09:31:08;24.33;;;21.73;;
14088;SDS011;7120;52.890;6.040;2022-11-15T09:33:33;27.43;;;21.73;;
14088;SDS011;7120;52.890;6.040;2022-11-15T09:36:00;24.27;;;21.30;;
14088;SDS011;7120;52.890;6.040;2022-11-15T09:38:27;24.87;;;22.17;;
14088;SDS011;7120;52.890;6.040;2022-11-15T09:40:53;26.70;;;21.33;;
14088;SDS011;7120;52.890;6.040;2022-11-15T09:46:16;25.77;;;21.63;;
14088;SDS011;7120;52.890;6.040;2022-11-15T09:48:55;27.33;;;20.80;;
14088;SDS011;7120;52.890;6.040;2022-11-15T09:51:29;24.10;;;20.93;;
14088;SDS011;7120;52.890;6.040;2022-11-15T09:56:35;24.20;;;21.60;;
14088;SDS011;7120;52.890;6.040;2022-11-15T10:04:58;28.70;;;21.40;;
14088;SDS011;7120;52.890;6.040;2022-11-15T10:07:34;25.00;;;20.87;;
14088;SDS011;7120;52.890;6.040;2022-11-15T10:12:50;23.37;;;18.53;;
14088;SDS011;7120;52.890;6.040;2022-11-15T10:15:17;21.67;;;18.40;;
14088;SDS011;7120;52.890;6.040;2022-11-15T10:20:29;20.23;;;18.13;;
14088;SDS011;7120;52.890;6.040;2022-11-15T10:23:01;21.93;;;18.07;;
14088;SDS011;7120;52.890;6.040;2022-11-15T10:25:34;20.63;;;16.83;;
14088;SDS011;7120;52.890;6.040;2022-11-15T10:28:22;17.57;;;15.77;;
14088;SDS011;7120;52.890;6.040;2022-11-15T10:30:49;17.97;;;16.07;;
14088;SDS011;7120;52.890;6.040;2022-11-15T10:33:33;17.23;;;15.47;;
14088;SDS011;7120;52.890;6.040;2022-11-15T10:36:14;16.37;;;14.67;;
14088;SDS011;7120;52.890;6.040;2022-11-15T10:41:14;17.43;;;15.63;;
14088;SDS011;7120;52.890;6.040;2022-11-15T10:43:52;15.83;;;14.23;;
14088;SDS011;7120;52.890;6.040;2022-11-15T10:46:26;17.00;;;15.07;;
14088;SDS011;7120;52.890;6.040;2022-11-15T10:48:52;19.50;;;15.07;;
14088;SDS011;7120;52.890;6.040;2022-11-15T10:51:25;16.17;;;14.57;;
14088;SDS011;7120;52.890;6.040;2022-11-15T10:53:57;18.03;;;16.10;;
14088;SDS011;7120;52.890;6.040;2022-11-15T10:56:25;15.30;;;13.70;;
14088;SDS011;7120;52.890;6.040;2022-11-15T10:58:55;14.90;;;13.37;;
14088;SDS011;7120;52.890;6.040;2022-11-15T11:01:22;13.67;;;12.23;;
14088;SDS011;7120;52.890;6.040;2022-11-15T11:04:04;13.67;;;12.37;;
14088;SDS011;7120;52.890;6.040;2022-11-15T11:06:46;13.43;;;12.03;;
14088;SDS011;7120;52.890;6.040;2022-11-15T11:09:21;12.33;;;11.07;;
14088;SDS011;7120;52.890;6.040;2022-11-15T11:11:57;13.40;;;11.27;;
14088;SDS011;7120;52.890;6.040;2022-11-15T11:14:33;13.90;;;10.23;;
14088;SDS011;7120;52.890;6.040;2022-11-15T11:17:13;13.40;;;10.90;;
14088;SDS011;7120;52.890;6.040;2022-11-15T11:20:07;10.97;;;9.60;;
14088;SDS011;7120;52.890;6.040;2022-11-15T11:23:29;14.43;;;9.80;;
14088;SDS011;7120;52.890;6.040;2022-11-15T11:36:25;9.87;;;8.80;;
14088;SDS011;7120;52.890;6.040;2022-11-15T11:41:46;10.03;;;9.03;;
14088;SDS011;7120;52.890;6.040;2022-11-15T11:47:03;9.60;;;8.20;;
14088;SDS011;7120;52.890;6.040;2022-11-15T11:49:59;7.90;;;7.00;;
14088;SDS011;7120;52.890;6.040;2022-11-15T11:52:40;7.77;;;6.80;;
14088;SDS011;7120;52.890;6.040;2022-11-15T12:01:02;9.10;;;6.30;;
14088;SDS011;7120;52.890;6.040;2022-11-15T12:06:20;8.77;;;5.97;;
14088;SDS011;7120;52.890;6.040;2022-11-15T12:08:56;7.27;;;5.73;;
14088;SDS011;7120;52.890;6.040;2022-11-15T12:11:29;7.07;;;5.40;;
14088;SDS011;7120;52.890;6.040;2022-11-15T12:14:01;5.03;;;4.53;;
14088;SDS011;7120;52.890;6.040;2022-11-15T12:16:30;5.40;;;4.90;;
14088;SDS011;7120;52.890;6.040;2022-11-15T12:19:01;5.63;;;4.40;;
14088;SDS011;7120;52.890;6.040;2022-11-15T12:21:46;5.73;;;4.83;;
14088;SDS011;7120;52.890;6.040;2022-11-15T12:29:59;3.70;;;3.40;;
14088;SDS011;7120;52.890;6.040;2022-11-15T12:32:29;4.57;;;4.00;;
14088;SDS011;7120;52.890;6.040;2022-11-15T12:34:58;4.70;;;3.63;;
14088;SDS011;7120;52.890;6.040;2022-11-15T12:42:35;4.70;;;3.53;;
14088;SDS011;7120;52.890;6.040;2022-11-15T12:45:23;7.53;;;3.97;;
14088;SDS011;7120;52.890;6.040;2022-11-15T12:47:50;3.60;;;3.30;;
14088;SDS011;7120;52.890;6.040;2022-11-15T12:50:16;4.00;;;3.30;;
14088;SDS011;7120;52.890;6.040;2022-11-15T12:53:42;4.93;;;4.40;;
14088;SDS011;7120;52.890;6.040;2022-11-15T12:58:48;4.77;;;3.63;;
14088;SDS011;7120;52.890;6.040;2022-11-15T13:06:40;4.80;;;3.60;;
14088;SDS011;7120;52.890;6.040;2022-11-15T13:11:55;16.43;;;13.73;;
14088;SDS011;7120;52.890;6.040;2022-11-15T13:19:45;3.73;;;2.67;;
14088;SDS011;7120;52.890;6.040;2022-11-15T13:22:12;3.93;;;3.10;;
14088;SDS011;7120;52.890;6.040;2022-11-15T13:24:56;3.13;;;2.83;;
14088;SDS011;7120;52.890;6.040;2022-11-15T13:27:22;4.03;;;3.27;;
14088;SDS011;7120;52.890;6.040;2022-11-15T13:29:48;3.60;;;3.03;;
14088;SDS011;7120;52.890;6.040;2022-11-15T13:32:14;4.47;;;2.93;;
14088;SDS011;7120;52.890;6.040;2022-11-15T13:34:47;3.60;;;3.30;;
14088;SDS011;7120;52.890;6.040;2022-11-15T13:39:45;3.53;;;2.80;;
14088;SDS011;7120;52.890;6.040;2022-11-15T13:42:18;3.77;;;3.13;;
14088;SDS011;7120;52.890;6.040;2022-11-15T13:45:03;3.77;;;2.80;;
14088;SDS011;7120;52.890;6.040;2022-11-15T13:47:37;4.03;;;2.63;;
14088;SDS011;7120;52.890;6.040;2022-11-15T13:50:04;4.43;;;3.07;;
14088;SDS011;7120;52.890;6.040;2022-11-15T13:52:31;3.37;;;2.70;;
14088;SDS011;7120;52.890;6.040;2022-11-15T13:55:01;3.10;;;2.60;;
14088;SDS011;7120;52.890;6.040;2022-11-15T14:05:42;2.77;;;2.57;;
14088;SDS011;7120;52.890;6.040;2022-11-15T14:08:21;4.20;;;2.87;;
14088;SDS011;7120;52.890;6.040;2022-11-15T14:10:48;3.60;;;2.37;;
14088;SDS011;7120;52.890;6.040;2022-11-15T14:16:34;3.87;;;2.40;;
14088;SDS011;7120;52.890;6.040;2022-11-15T14:19:01;3.07;;;2.30;;
14088;SDS011;7120;52.890;6.040;2022-11-15T14:21:28;2.33;;;2.13;;
14088;SDS011;7120;52.890;6.040;2022-11-15T14:24:13;3.97;;;2.20;;
14088;SDS011;7120;52.890;6.040;2022-11-15T14:26:40;2.90;;;2.20;;
14088;SDS011;7120;52.890;6.040;2022-11-15T14:29:22;4.20;;;2.17;;
14088;SDS011;7120;52.890;6.040;2022-11-15T14:31:52;4.37;;;2.37;;
14088;SDS011;7120;52.890;6.040;2022-11-15T14:34:18;2.67;;;1.90;;
14088;SDS011;7120;52.890;6.040;2022-11-15T14:36:46;3.70;;;2.00;;
14088;SDS011;7120;52.890;6.040;2022-11-15T14:39:13;3.27;;;1.60;;
14088;SDS011;7120;52.890;6.040;2022-11-15T14:41:38;3.27;;;1.60;;
14088;SDS011;7120;52.890;6.040;2022-11-15T14:44:04;3.73;;;1.63;;
14088;SDS011;7120;52.890;6.040;2022-11-15T14:46:30;4.93;;;2.00;;
14088;SDS011;7120;52.890;6.040;2022-11-15T14:48:55;2.80;;;1.60;;
14088;SDS011;7120;52.890;6.040;2022-11-15T14:51:22;2.70;;;1.30;;
14088;SDS011;7120;52.890;6.040;2022-11-15T14:53:48;2.37;;;1.40;;
14088;SDS011;7120;52.890;6.040;2022-11-15T14:56:14;4.23;;;2.57;;
14088;SDS011;7120;52.890;6.040;2022-11-15T14:58:41;6.77;;;4.67;;
14088;SDS011;7120;52.890;6.040;2022-11-15T15:01:20;7.47;;;5.43;;
14088;SDS011;7120;52.890;6.040;2022-11-15T15:03:50;2.73;;;2.30;;
14088;SDS011;7120;52.890;6.040;2022-11-15T15:06:23;3.17;;;1.90;;
14088;SDS011;7120;52.890;6.040;2022-11-15T15:08:49;3.00;;;2.30;;
14088;SDS011;7120;52.890;6.040;2022-11-15T15:11:17;2.47;;;1.70;;
14088;SDS011;7120;52.890;6.040;2022-11-15T15:13:46;2.57;;;1.47;;
14088;SDS011;7120;52.890;6.040;2022-11-15T15:16:11;2.47;;;1.47;;
14088;SDS011;7120;52.890;6.040;2022-11-15T15:18:37;3.67;;;1.40;;
14088;SDS011;7120;52.890;6.040;2022-11-15T15:21:02;2.30;;;1.33;;
14088;SDS011;7120;52.890;6.040;2022-11-15T15:23:32;2.17;;;1.70;;
14088;SDS011;7120;52.890;6.040;2022-11-15T15:25:58;2.47;;;1.77;;
14088;SDS011;7120;52.890;6.040;2022-11-15T15:28:24;5.03;;;2.47;;
14088;SDS011;7120;52.890;6.040;2022-11-15T15:30:49;2.17;;;1.67;;
14088;SDS011;7120;52.890;6.040;2022-11-15T15:33:15;4.07;;;1.90;;
14088;SDS011;7120;52.890;6.040;2022-11-15T15:35:40;3.30;;;2.30;;
14088;SDS011;7120;52.890;6.040;2022-11-15T15:38:08;3.73;;;2.60;;
14088;SDS011;7120;52.890;6.040;2022-11-15T15:40:36;5.30;;;4.20;;
14088;SDS011;7120;52.890;6.040;2022-11-15T15:43:01;3.87;;;3.50;;
14088;SDS011;7120;52.890;6.040;2022-11-15T15:45:26;3.77;;;3.40;;
14088;SDS011;7120;52.890;6.040;2022-11-15T15:47:52;4.13;;;3.23;;
14088;SDS011;7120;52.890;6.040;2022-11-15T15:50:34;6.57;;;3.63;;
14088;SDS011;7120;52.890;6.040;2022-11-15T15:53:01;7.30;;;3.70;;
14088;SDS011;7120;52.890;6.040;2022-11-15T15:55:28;4.10;;;3.70;;
14088;SDS011;7120;52.890;6.040;2022-11-15T15:57:54;6.53;;;3.60;;
14088;SDS011;7120;52.890;6.040;2022-11-15T16:00:20;4.00;;;3.30;;
14088;SDS011;7120;52.890;6.040;2022-11-15T16:02:48;7.67;;;3.67;;
14088;SDS011;7120;52.890;6.040;2022-11-15T16:05:14;5.87;;;4.50;;
14088;SDS011;7120;52.890;6.040;2022-11-15T16:07:39;4.50;;;3.90;;
14088;SDS011;7120;52.890;6.040;2022-11-15T16:12:47;6.40;;;4.17;;
14088;SDS011;7120;52.890;6.040;2022-11-15T16:15:16;6.97;;;4.30;;
14088;SDS011;7120;52.890;6.040;2022-11-15T16:17:52;4.83;;;4.33;;
14088;SDS011;7120;52.890;6.040;2022-11-15T16:20:39;6.73;;;5.07;;
14088;SDS011;7120;52.890;6.040;2022-11-15T16:23:16;7.00;;;5.57;;
14088;SDS011;7120;52.890;6.040;2022-11-15T16:28:20;7.00;;;5.47;;
14088;SDS011;7120;52.890;6.040;2022-11-15T16:31:14;5.90;;;5.33;;
14088;SDS011;7120;52.890;6.040;2022-11-15T16:33:43;6.27;;;5.13;;
14088;SDS011;7120;52.890;6.040;2022-11-15T16:36:22;5.20;;;4.70;;
14088;SDS011;7120;52.890;6.040;2022-11-15T16:38:49;5.03;;;4.30;;
14088;SDS011;7120;52.890;6.040;2022-11-15T16:41:15;6.80;;;4.20;;
14088;SDS011;7120;52.890;6.040;2022-11-15T16:43:45;5.30;;;4.80;;
14088;SDS011;7120;52.890;6.040;2022-11-15T16:46:17;7.23;;;4.30;;
14088;SDS011;7120;52.890;6.040;2022-11-15T16:48:45;3.93;;;3.53;;
14088;SDS011;7120;52.890;6.040;2022-11-15T16:51:11;5.40;;;4.20;;
14088;SDS011;7120;52.890;6.040;2022-11-15T16:53:37;6.20;;;3.77;;
14088;SDS011;7120;52.890;6.040;2022-11-15T16:56:03;4.00;;;3.50;;